createdAt,value
2023-04-03T00:01:14.606Z,1.80
2023-04-03T00:03:42.683Z,1.90
2023-04-03T00:06:12.741Z,1.90
2023-04-03T00:08:41.464Z,1.63
2023-04-03T00:11:10.471Z,1.80
2023-04-03T00:13:38.842Z,1.88
2023-04-03T00:16:08.449Z,1.80
2023-04-03T00:18:37.237Z,1.70
2023-04-03T00:21:05.659Z,1.70
2023-04-03T00:23:32.991Z,1.70
2023-04-03T00:26:00.631Z,1.70
2023-04-03T00:28:27.918Z,1.92
2023-04-03T00:30:55.655Z,1.58
2023-04-03T00:33:23.141Z,1.65
2023-04-03T00:35:51.046Z,1.65
2023-04-03T00:38:18.976Z,1.70
2023-04-03T00:40:48.615Z,1.70
2023-04-03T00:43:20.040Z,1.50
2023-04-03T00:45:52.495Z,1.67
2023-04-03T00:48:23.947Z,1.52
2023-04-03T00:50:52.945Z,1.45
2023-04-03T00:53:26.029Z,1.83
2023-04-03T00:55:56.241Z,1.60
2023-04-03T00:58:34.028Z,1.70
2023-04-03T01:01:07.922Z,1.75
2023-04-03T01:03:36.103Z,1.80
2023-04-03T01:06:04.010Z,1.58
2023-04-03T01:08:31.982Z,1.65
2023-04-03T01:10:59.673Z,1.50
2023-04-03T01:13:33.764Z,1.58
2023-04-03T01:16:06.244Z,1.83
2023-04-03T01:18:36.342Z,1.73
2023-04-03T01:21:45.901Z,2.03
2023-04-03T01:24:25.270Z,1.67
2023-04-03T01:26:52.794Z,1.48
2023-04-03T01:29:20.774Z,1.70
2023-04-03T01:31:57.249Z,1.65
2023-04-03T01:34:25.702Z,1.60
2023-04-03T01:36:53.874Z,1.70
2023-04-03T01:39:21.943Z,1.70
2023-04-03T01:41:50.316Z,1.50
2023-04-03T01:44:18.998Z,1.70
2023-04-03T01:46:47.334Z,1.60
2023-04-03T01:49:14.634Z,1.60
2023-04-03T01:51:42.442Z,1.55
2023-04-03T01:54:09.764Z,1.73
2023-04-03T01:56:37.337Z,1.63
2023-04-03T01:59:04.633Z,1.60
2023-04-03T02:01:32.240Z,1.67
2023-04-03T02:04:00.007Z,1.52
2023-04-03T02:06:27.907Z,1.45
2023-04-03T02:08:55.406Z,1.80
2023-04-03T02:11:22.939Z,1.70
2023-04-03T02:13:50.239Z,1.67
2023-04-03T02:16:18.297Z,1.50
2023-04-03T02:18:46.162Z,1.95
2023-04-03T02:21:13.676Z,1.52
2023-04-03T02:23:41.129Z,1.77
2023-04-03T02:26:12.247Z,1.67
2023-04-03T02:28:40.631Z,1.77
2023-04-03T02:31:09.650Z,1.80
2023-04-03T02:33:39.327Z,1.48
2023-04-03T02:36:08.119Z,1.55
2023-04-03T02:38:36.116Z,1.50
2023-04-03T02:41:10.330Z,1.58
2023-04-03T02:43:38.483Z,1.80
2023-04-03T02:46:06.509Z,1.58
2023-04-03T02:48:34.128Z,1.67
2023-04-03T02:51:02.097Z,1.40
2023-04-03T02:53:29.351Z,1.67
2023-04-03T02:55:56.880Z,1.60
2023-04-03T02:58:24.259Z,1.55
2023-04-03T03:00:51.799Z,1.58
2023-04-03T03:03:19.274Z,1.50
2023-04-03T03:05:46.761Z,1.63
2023-04-03T03:08:13.965Z,1.30
2023-04-03T03:10:41.489Z,1.70
2023-04-03T03:13:08.752Z,1.45
2023-04-03T03:15:36.239Z,1.67
2023-04-03T03:18:03.702Z,1.90
2023-04-03T03:20:31.461Z,1.38
2023-04-03T03:22:58.698Z,1.77
2023-04-03T03:25:26.275Z,1.70
2023-04-03T03:27:53.516Z,1.65
2023-04-03T03:30:21.843Z,1.58
2023-04-03T03:32:49.519Z,1.30
2023-04-03T03:35:17.047Z,1.60
2023-04-03T03:37:44.355Z,1.50
2023-04-03T03:40:13.999Z,2.03
2023-04-03T03:42:41.254Z,1.73
2023-04-03T03:45:09.709Z,1.70
2023-04-03T03:47:37.126Z,1.50
2023-04-03T03:50:05.035Z,1.60
2023-04-03T03:52:32.316Z,1.50
2023-04-03T03:54:59.819Z,1.80
2023-04-03T03:57:29.706Z,1.85
2023-04-03T03:59:57.275Z,1.60
2023-04-03T04:02:24.657Z,1.33
2023-04-03T04:04:52.754Z,1.77
2023-04-03T04:07:20.020Z,1.90
2023-04-03T04:09:48.062Z,1.70
2023-04-03T04:12:16.915Z,1.55
2023-04-03T04:14:47.547Z,1.80
2023-04-03T04:17:15.519Z,1.60
2023-04-03T04:19:43.033Z,1.77
2023-04-03T04:22:10.307Z,1.70
2023-04-03T04:24:38.625Z,1.85
2023-04-03T04:27:06.988Z,1.50
2023-04-03T04:29:36.710Z,1.52
2023-04-03T04:32:05.416Z,1.70
2023-04-03T04:34:33.033Z,1.80
2023-04-03T04:37:00.415Z,1.80
2023-04-03T04:39:27.990Z,1.75
2023-04-03T04:41:55.567Z,1.60
2023-04-03T04:44:23.128Z,1.50
2023-04-03T04:46:51.088Z,1.83
2023-04-03T04:49:18.595Z,1.70
2023-04-03T04:51:52.008Z,1.83
2023-04-03T04:54:20.099Z,1.40
2023-04-03T04:56:47.551Z,1.80
2023-04-03T04:59:15.025Z,1.70
2023-04-03T05:01:42.277Z,1.80
2023-04-03T05:04:10.463Z,1.60
2023-04-03T05:06:37.722Z,2.00
2023-04-03T05:09:05.441Z,1.70
2023-04-03T05:11:32.723Z,1.90
2023-04-03T05:14:00.300Z,1.70
2023-04-03T05:16:27.585Z,1.83
2023-04-03T05:18:55.320Z,2.15
2023-04-03T05:21:24.325Z,2.10
2023-04-03T05:23:52.139Z,2.20
2023-04-03T05:26:19.413Z,1.83
2023-04-03T05:28:46.903Z,1.90
2023-04-03T05:31:14.256Z,2.15
2023-04-03T05:33:41.763Z,2.03
2023-04-03T05:36:09.379Z,2.15
2023-04-03T05:38:37.147Z,1.90
2023-04-03T05:41:04.472Z,2.00
2023-04-03T05:43:32.135Z,1.92
2023-04-03T05:45:59.414Z,2.00
2023-04-03T05:48:26.997Z,1.65
2023-04-03T05:50:56.432Z,1.75
2023-04-03T05:53:29.256Z,2.03
2023-04-03T05:55:56.596Z,2.15
2023-04-03T05:58:24.118Z,2.13
2023-04-03T06:00:51.412Z,2.53
2023-04-03T06:03:19.018Z,2.00
2023-04-03T06:05:47.321Z,1.88
2023-04-03T06:08:15.571Z,2.25
2023-04-03T06:10:43.743Z,2.28
2023-04-03T06:13:11.284Z,2.40
2023-04-03T06:15:39.565Z,2.40
2023-04-03T06:18:07.795Z,2.15
2023-04-03T06:20:35.385Z,1.88
2023-04-03T06:23:03.329Z,2.40
2023-04-03T06:25:30.572Z,2.25
2023-04-03T06:27:58.440Z,2.53
2023-04-03T06:30:26.457Z,2.22
2023-04-03T06:32:54.169Z,2.13
2023-04-03T06:35:21.954Z,2.13
2023-04-03T06:37:49.787Z,2.10
2023-04-03T06:40:23.783Z,1.85
2023-04-03T06:42:51.427Z,2.00
2023-04-03T06:45:18.710Z,2.17
2023-04-03T06:47:46.481Z,2.45
2023-04-03T06:50:15.539Z,1.90
2023-04-03T06:52:43.356Z,2.17
2023-04-03T06:55:11.105Z,2.08
2023-04-03T06:57:38.850Z,2.20
2023-04-03T07:00:08.239Z,2.22
2023-04-03T07:02:35.809Z,1.83
2023-04-03T07:05:04.749Z,2.10
2023-04-03T07:07:31.925Z,1.92
2023-04-03T07:09:59.479Z,2.08
2023-04-03T07:12:27.270Z,1.90
2023-04-03T07:14:54.852Z,1.80
2023-04-03T07:17:22.204Z,2.40
2023-04-03T07:19:49.790Z,1.90
2023-04-03T07:22:18.277Z,2.22
2023-04-03T07:24:47.125Z,1.75
2023-04-03T07:27:14.780Z,2.67
2023-04-03T07:29:42.319Z,2.28
2023-04-03T07:32:09.738Z,2.20
2023-04-03T07:34:37.366Z,1.95
2023-04-03T07:37:05.636Z,1.88
2023-04-03T07:39:33.603Z,2.22
2023-04-03T07:42:01.190Z,2.20
2023-04-03T07:44:29.544Z,2.05
2023-04-03T07:46:57.034Z,1.90
2023-04-03T07:49:25.157Z,2.40
2023-04-03T07:51:52.497Z,1.85
2023-04-03T07:54:20.345Z,2.03
2023-04-03T07:56:47.690Z,2.15
2023-04-03T07:59:16.050Z,1.90
2023-04-03T08:01:43.380Z,2.33
2023-04-03T08:04:11.392Z,1.90
2023-04-03T08:06:46.468Z,2.25
2023-04-03T08:09:16.691Z,2.22
2023-04-03T08:11:45.506Z,1.80
2023-04-03T08:14:17.426Z,2.38
2023-04-03T08:16:46.876Z,2.10
2023-04-03T08:19:25.438Z,2.00
2023-04-03T08:21:55.542Z,2.00
2023-04-03T08:24:23.492Z,1.83
2023-04-03T08:26:51.083Z,2.00
2023-04-03T08:29:18.709Z,2.25
2023-04-03T08:31:46.359Z,2.20
2023-04-03T08:34:15.449Z,2.28
2023-04-03T08:36:43.024Z,1.77
2023-04-03T08:39:11.622Z,2.15
2023-04-03T08:41:45.665Z,2.22
2023-04-03T08:45:21.438Z,2.60
2023-04-03T08:47:57.396Z,2.00
2023-04-03T08:50:32.524Z,2.10
2023-04-03T08:53:03.134Z,2.08
2023-04-03T08:55:51.782Z,1.83
2023-04-03T08:58:25.087Z,2.10
2023-04-03T09:01:04.986Z,2.20
2023-04-03T09:03:34.250Z,2.17
2023-04-03T09:06:05.690Z,2.00
2023-04-03T09:08:48.339Z,2.00
2023-04-03T09:11:28.476Z,2.10
2023-04-03T09:14:07.833Z,2.20
2023-04-03T09:16:50.734Z,1.83
2023-04-03T09:19:21.323Z,2.05
2023-04-03T09:21:48.887Z,1.80
2023-04-03T09:24:18.225Z,2.05
2023-04-03T09:26:57.437Z,1.90
2023-04-03T09:29:25.944Z,2.17
2023-04-03T09:32:01.875Z,2.20
2023-04-03T09:34:33.702Z,2.10
2023-04-03T09:37:11.470Z,1.83
2023-04-03T09:39:54.566Z,2.10
2023-04-03T09:42:24.863Z,1.75
2023-04-03T09:45:01.207Z,2.00
2023-04-03T09:47:36.110Z,2.20
2023-04-03T09:50:20.158Z,1.95
2023-04-03T09:52:50.335Z,1.80
2023-04-03T09:55:30.549Z,2.03
2023-04-03T09:58:04.839Z,2.15
2023-04-03T10:00:37.625Z,2.15
2023-04-03T10:03:06.696Z,2.30
2023-04-03T10:05:39.689Z,1.92
2023-04-03T10:08:16.226Z,1.52
2023-04-03T10:10:46.581Z,1.90
2023-04-03T10:13:21.989Z,1.73
2023-04-03T10:16:00.948Z,1.77
2023-04-03T10:18:37.616Z,1.88
2023-04-03T10:21:26.661Z,1.70
2023-04-03T10:24:11.623Z,1.70
2023-04-03T10:26:42.955Z,1.98
2023-04-03T10:29:37.430Z,1.75
2023-04-03T10:32:26.464Z,1.70
2023-04-03T10:35:19.614Z,1.73
2023-04-03T10:38:20.789Z,2.10
2023-04-03T10:41:13.800Z,1.70
2023-04-03T10:44:00.143Z,1.60
2023-04-03T10:49:10.759Z,1.70
2023-04-03T10:51:44.555Z,1.70
2023-04-03T10:54:37.219Z,1.60
2023-04-03T10:57:12.604Z,1.58
2023-04-03T10:59:55.041Z,1.70
2023-04-03T11:02:31.358Z,1.75
2023-04-03T11:05:12.535Z,1.70
2023-04-03T11:07:47.176Z,1.65
2023-04-03T11:10:24.566Z,1.58
2023-04-03T11:13:08.043Z,1.88
2023-04-03T11:15:36.477Z,1.67
2023-04-03T11:18:17.078Z,1.92
2023-04-03T11:21:14.698Z,1.50
2023-04-03T11:23:49.702Z,1.45
2023-04-03T11:26:23.551Z,1.50
2023-04-03T11:28:57.241Z,1.60
2023-04-03T11:31:44.304Z,1.60
2023-04-03T11:34:23.755Z,1.45
2023-04-03T11:36:58.534Z,1.70
2023-04-03T11:44:43.891Z,1.55
2023-04-03T11:47:32.296Z,1.45
2023-04-03T11:50:02.112Z,1.60
2023-04-03T11:52:44.575Z,1.80
2023-04-03T11:55:22.110Z,1.40
2023-04-03T11:57:58.792Z,1.58
2023-04-03T12:00:44.497Z,1.55
2023-04-03T12:06:07.804Z,1.60
2023-04-03T12:08:35.244Z,1.40
2023-04-03T12:11:12.103Z,1.60
2023-04-03T12:13:49.701Z,1.60
2023-04-03T12:16:20.228Z,1.48
2023-04-03T12:18:50.469Z,1.40
2023-04-03T12:21:31.182Z,1.30
2023-04-03T12:24:10.735Z,1.55
2023-04-03T12:26:52.335Z,1.55
2023-04-03T12:30:01.398Z,1.65
2023-04-03T12:32:44.201Z,1.13
2023-04-03T12:35:29.392Z,1.38
2023-04-03T12:38:10.435Z,1.67
2023-04-03T12:40:47.553Z,1.30
2023-04-03T12:43:29.918Z,1.60
2023-04-03T12:46:07.865Z,1.27
2023-04-03T12:48:48.384Z,1.58
2023-04-03T12:51:23.664Z,1.60
2023-04-03T12:53:57.393Z,1.70
2023-04-03T12:56:32.088Z,1.70
2023-04-03T12:59:23.680Z,1.40
2023-04-03T13:01:56.970Z,1.30
2023-04-03T13:04:25.893Z,1.45
2023-04-03T13:06:53.486Z,1.30
2023-04-03T13:09:22.548Z,1.50
2023-04-03T13:11:52.437Z,1.40
2023-04-03T13:14:22.589Z,1.45
2023-04-03T13:17:17.255Z,1.60
2023-04-03T13:19:47.564Z,1.30
2023-04-03T13:22:44.482Z,1.48
2023-04-03T13:25:15.989Z,1.58
2023-04-03T13:27:45.179Z,1.23
2023-04-03T13:30:34.165Z,1.52
2023-04-03T13:33:06.398Z,1.50
2023-04-03T13:35:40.636Z,1.45
2023-04-03T13:38:20.267Z,1.60
2023-04-03T13:40:50.468Z,1.50
2023-04-03T13:43:25.340Z,1.48
2023-04-03T13:48:26.220Z,1.50
2023-04-03T13:50:56.580Z,1.30
2023-04-03T13:53:24.754Z,1.50
2023-04-03T13:55:58.484Z,1.50
2023-04-03T13:58:27.723Z,1.40
2023-04-03T14:00:57.033Z,1.20
2023-04-03T14:03:29.831Z,1.40
2023-04-03T14:05:57.691Z,1.25
2023-04-03T14:08:36.078Z,1.40
2023-04-03T14:11:15.482Z,1.65
2023-04-03T14:13:43.761Z,1.48
2023-04-03T14:16:17.833Z,1.40
2023-04-03T14:18:47.222Z,1.30
2023-04-03T14:21:16.706Z,1.30
2023-04-03T14:23:45.082Z,1.60
2023-04-03T14:26:17.309Z,1.48
2023-04-03T14:28:50.902Z,1.40
2023-04-03T14:31:20.124Z,1.58
2023-04-03T14:33:48.334Z,1.27
2023-04-03T14:36:18.947Z,1.27
2023-04-03T14:38:46.686Z,1.45
2023-04-03T14:41:17.412Z,1.30
2023-04-03T14:43:46.647Z,1.65
2023-04-03T14:46:55.482Z,1.52
2023-04-03T14:49:29.916Z,1.40
2023-04-03T14:51:58.688Z,1.30
2023-04-03T14:54:28.451Z,1.30
2023-04-03T14:56:58.850Z,1.70
2023-04-03T14:59:27.193Z,1.50
2023-04-03T15:01:54.821Z,1.35
2023-04-03T15:04:22.296Z,1.48
2023-04-03T15:06:52.350Z,1.45
2023-04-03T15:09:23.595Z,1.42
2023-04-03T15:11:52.941Z,1.70
2023-04-03T15:14:35.182Z,1.27
2023-04-03T15:17:07.880Z,1.70
2023-04-03T15:19:38.988Z,1.30
2023-04-03T15:22:06.961Z,1.50
2023-04-03T15:24:34.330Z,1.48
2023-04-03T15:27:02.636Z,1.35
2023-04-03T15:29:30.074Z,1.20
2023-04-03T15:31:57.611Z,1.27
2023-04-03T15:34:25.042Z,1.50
2023-04-03T15:36:56.097Z,1.42
2023-04-03T15:39:24.355Z,1.60
2023-04-03T15:41:53.021Z,1.23
2023-04-03T15:44:22.077Z,1.55
2023-04-03T15:46:52.340Z,1.33
2023-04-03T15:49:22.311Z,1.45
2023-04-03T15:51:49.965Z,1.25
2023-04-03T15:54:17.705Z,1.58
2023-04-03T15:56:46.094Z,1.58
2023-04-03T15:59:13.436Z,1.48
2023-04-03T16:01:41.466Z,1.75
2023-04-03T16:04:09.772Z,1.42
2023-04-03T16:06:39.275Z,1.60
2023-04-03T16:09:07.755Z,1.70
2023-04-03T16:11:36.872Z,1.70
2023-04-03T16:14:04.108Z,1.60
2023-04-03T16:16:31.730Z,1.90
2023-04-03T16:18:59.405Z,1.42
2023-04-03T16:21:27.982Z,1.58
2023-04-03T16:23:58.246Z,1.88
2023-04-03T16:26:27.448Z,1.60
2023-04-03T16:28:55.416Z,1.90
2023-04-03T16:31:25.006Z,1.63
2023-04-03T16:33:52.625Z,1.88
2023-04-03T16:36:20.611Z,1.73
2023-04-03T16:38:48.097Z,1.80
2023-04-03T16:41:15.737Z,1.55
2023-04-03T16:43:45.435Z,1.88
2023-04-03T16:46:13.012Z,2.00
2023-04-03T16:48:40.754Z,1.42
2023-04-03T16:51:08.348Z,1.88
2023-04-03T16:53:36.741Z,1.80
2023-04-03T16:56:04.955Z,1.67
2023-04-03T16:58:32.413Z,1.50
2023-04-03T17:01:08.982Z,1.73
2023-04-03T17:03:36.589Z,1.48
2023-04-03T17:06:04.727Z,1.80
2023-04-03T17:08:32.585Z,1.75
2023-04-03T17:11:00.437Z,1.63
2023-04-03T17:13:32.319Z,2.13
2023-04-03T17:16:00.586Z,1.70
2023-04-03T17:18:28.609Z,1.80
2023-04-03T17:20:57.123Z,1.83
2023-04-03T17:23:27.202Z,1.92
2023-04-03T17:25:55.639Z,1.80
2023-04-03T17:28:28.785Z,2.35
2023-04-03T17:30:59.037Z,1.60
2023-04-03T17:33:28.339Z,2.05
2023-04-03T17:36:04.375Z,1.80
2023-04-03T17:38:33.438Z,2.00
2023-04-03T17:41:04.443Z,1.90
2023-04-03T17:43:32.550Z,1.80
2023-04-03T17:46:03.828Z,2.10
2023-04-03T17:48:32.968Z,2.17
2023-04-03T17:51:08.473Z,1.73
2023-04-03T17:53:36.401Z,1.60
2023-04-03T17:56:24.948Z,1.48
2023-04-03T17:58:53.227Z,1.92
2023-04-03T18:01:26.388Z,2.28
2023-04-03T18:03:56.458Z,1.83
2023-04-03T18:06:47.110Z,1.90
2023-04-03T18:09:18.371Z,1.70
2023-04-03T18:11:47.564Z,2.05
2023-04-03T18:14:17.917Z,1.70
2023-04-03T18:16:46.179Z,1.88
2023-04-03T18:21:45.973Z,1.92
2023-04-03T18:24:15.786Z,2.08
2023-04-03T18:26:48.026Z,2.03
2023-04-03T18:29:16.331Z,1.90
2023-04-03T18:31:47.788Z,1.60
2023-04-03T18:34:15.322Z,1.80
2023-04-03T18:36:43.757Z,1.85
2023-04-03T18:39:11.269Z,1.90
2023-04-03T18:41:39.324Z,1.70
2023-04-03T18:44:12.754Z,1.85
2023-04-03T18:46:40.894Z,2.08
2023-04-03T18:49:09.906Z,1.98
2023-04-03T18:51:39.542Z,2.17
2023-04-03T18:54:09.979Z,2.10
2023-04-03T18:56:39.045Z,2.13
2023-04-03T18:59:06.621Z,2.20
2023-04-03T19:01:35.143Z,1.92
2023-04-03T19:04:03.136Z,2.38
2023-04-03T19:06:34.159Z,2.05
2023-04-03T19:09:02.986Z,2.33
2023-04-03T19:11:31.349Z,2.25
2023-04-03T19:14:14.376Z,2.30
2023-04-03T19:16:44.597Z,2.33
2023-04-03T19:19:12.495Z,2.38
2023-04-03T19:21:41.104Z,2.20
2023-04-03T19:24:11.196Z,2.00
2023-04-03T19:26:39.523Z,2.13
2023-04-03T19:29:06.893Z,2.15
2023-04-03T19:31:37.065Z,2.05
2023-04-03T19:34:06.244Z,2.15
2023-04-03T19:36:34.622Z,2.40
2023-04-03T19:39:04.492Z,1.88
2023-04-03T19:41:35.239Z,2.65
2023-04-03T19:44:05.075Z,2.10
2023-04-03T19:46:34.716Z,2.28
2023-04-03T19:49:02.089Z,2.20
2023-04-03T19:51:30.102Z,2.30
2023-04-03T19:53:57.647Z,2.58
2023-04-03T19:56:27.045Z,2.53
2023-04-03T19:58:55.010Z,2.05
2023-04-03T20:01:24.607Z,2.40
2023-04-03T20:03:52.600Z,2.15
2023-04-03T20:06:21.554Z,2.30
2023-04-03T20:08:49.740Z,2.28
2023-04-03T20:11:17.673Z,2.10
2023-04-03T20:13:44.914Z,2.22
2023-04-03T20:16:12.631Z,2.30
2023-04-03T20:18:40.354Z,1.90
2023-04-03T20:21:08.432Z,1.88
2023-04-03T20:23:37.210Z,2.20
2023-04-03T20:26:10.868Z,2.70
2023-04-03T20:28:41.703Z,2.60
2023-04-03T20:31:09.938Z,1.85
2023-04-03T20:33:37.957Z,2.15
2023-04-03T20:36:06.130Z,2.15
2023-04-03T20:38:33.367Z,2.42
2023-04-03T20:41:00.975Z,2.42
2023-04-03T20:43:28.597Z,2.45
2023-04-03T20:45:56.842Z,2.40
2023-04-03T20:48:24.110Z,2.25
2023-04-03T20:50:51.914Z,2.70
2023-04-03T20:53:20.638Z,2.13
2023-04-03T20:56:00.577Z,2.20
2023-04-03T20:58:30.648Z,2.25
2023-04-03T21:00:59.275Z,2.10
2023-04-03T21:03:28.595Z,2.45
2023-04-03T21:06:00.290Z,2.38
2023-04-03T21:09:05.423Z,2.85
2023-04-03T21:12:10.841Z,2.40
2023-04-03T21:15:15.760Z,2.30
2023-04-03T21:18:08.602Z,2.55
2023-04-03T21:20:37.275Z,3.10
2023-04-03T21:23:05.780Z,2.17
2023-04-03T21:25:33.222Z,2.45
2023-04-03T21:28:02.395Z,2.35
2023-04-03T21:30:29.629Z,2.40
2023-04-03T21:32:57.514Z,2.53
2023-04-03T21:35:24.860Z,2.40
2023-04-03T21:37:52.396Z,2.42
2023-04-03T21:40:19.624Z,2.60
2023-04-03T21:42:47.422Z,2.40
2023-04-03T21:45:16.058Z,2.63
2023-04-03T21:47:44.748Z,2.33
2023-04-03T21:50:12.356Z,2.50
2023-04-03T21:52:39.900Z,2.88
2023-04-03T21:55:08.612Z,2.60
2023-04-03T21:57:36.217Z,2.60
2023-04-03T22:00:06.170Z,2.88
2023-04-03T22:02:36.178Z,3.10
2023-04-03T22:05:03.740Z,2.63
2023-04-03T22:07:31.410Z,2.53
2023-04-03T22:09:58.945Z,3.03
2023-04-03T22:12:28.035Z,2.85
2023-04-03T22:14:55.483Z,2.72
2023-04-03T22:17:22.975Z,2.63
2023-04-03T22:19:51.141Z,2.85
2023-04-03T22:22:18.787Z,2.88
2023-04-03T22:24:46.065Z,2.58
2023-04-03T22:27:13.644Z,3.05
2023-04-03T22:29:41.014Z,2.85
2023-04-03T22:32:08.533Z,2.78
2023-04-03T22:34:38.129Z,3.13
2023-04-03T22:37:05.860Z,3.05
2023-04-03T22:39:33.285Z,2.72
2023-04-03T22:42:01.996Z,2.83
2023-04-03T22:44:34.964Z,3.30
2023-04-03T22:47:03.950Z,3.08
2023-04-03T22:49:32.032Z,3.03
2023-04-03T22:51:59.571Z,3.03
2023-04-03T22:54:26.899Z,3.10
2023-04-03T22:56:54.447Z,3.00
2023-04-03T22:59:21.784Z,3.25
2023-04-03T23:01:49.324Z,3.10
2023-04-03T23:04:17.429Z,2.95
2023-04-03T23:06:45.074Z,2.88
2023-04-03T23:09:12.365Z,2.90
2023-04-03T23:11:39.847Z,3.20
2023-04-03T23:14:07.035Z,3.15
2023-04-03T23:16:34.625Z,2.80
2023-04-03T23:19:01.973Z,3.28
2023-04-03T23:21:29.523Z,3.08
2023-04-03T23:23:56.990Z,3.10
2023-04-03T23:26:25.492Z,3.25
2023-04-03T23:28:52.741Z,3.05
2023-04-03T23:31:20.236Z,3.05
2023-04-03T23:33:47.567Z,3.30
2023-04-03T23:36:16.151Z,2.95
2023-04-03T23:38:43.623Z,3.55
2023-04-03T23:41:11.408Z,3.13
2023-04-03T23:43:39.709Z,3.33
2023-04-03T23:46:07.709Z,3.17
2023-04-03T23:48:35.082Z,3.08
2023-04-03T23:51:02.599Z,3.28
2023-04-03T23:53:29.893Z,3.60
2023-04-03T23:55:57.767Z,3.30
2023-04-03T23:58:25.166Z,3.22
